This is the latest recevied weather packets stored in our database for station/object KC9GSD. If no packets are shown the sender has not sent any weather packets the latest 10 day(s).
| Time | Temp. | Humidity | Pressure | Rain* | Wind** | Luminosity | Snow |
|---|---|---|---|---|---|---|---|
| 1777852788 | 15° C | 58% | 1017.2 hPa | 0 mm | - | 17 W/m² | - |
| 1777852486 | 15° C | 54% | 1017.4 hPa | 0 mm | - | 18 W/m² | - |
| 1777852183 | 15.56° C | 52% | 1017.3 hPa | 0 mm | - | 20 W/m² | - |
| 1777851880 | 15.56° C | 52% | 1017.2 hPa | 0 mm | - | 22 W/m² | - |
| 1777851578 | 16.11° C | 50% | 1017.3 hPa | 0 mm | - | 26 W/m² | - |
| 1777851274 | 16.67° C | 49% | 1017.2 hPa | 0 mm | - | 26 W/m² | - |
| 1777850971 | 16.67° C | 40% | 1017.3 hPa | 0 mm | - | 28 W/m² | - |
| 1777850668 | 16.67° C | 49% | 1017.2 hPa | 0 mm | - | 29 W/m² | - |
| 1777850366 | 16.67° C | 45% | 1017.2 hPa | 0 mm | - | 30 W/m² | - |
| 1777850063 | 16.67° C | 43% | 1017.3 hPa | 0 mm | - | 32 W/m² | - |
| 1777849759 | 17.22° C | 44% | 1017.2 hPa | 0 mm | - | 33 W/m² | - |
| 1777849456 | 17.22° C | 42% | 1017.2 hPa | 0 mm | - | 34 W/m² | - |
| 1777849154 | 17.78° C | 38% | 1017.4 hPa | 0 mm | - | 36 W/m² | - |
| 1777848850 | 17.78° C | 43% | 1017.3 hPa | 0 mm | - | 37 W/m² | - |
| 1777848546 | 17.78° C | 39% | 1017.2 hPa | 0 mm | - | 38 W/m² | - |
| 1777848243 | 17.78° C | 45% | 1017.2 hPa | 0 mm | - | 40 W/m² | - |
| 1777847941 | 17.78° C | 39% | 1017.4 hPa | 0 mm | - | 40 W/m² | - |
| 1777847639 | 18.33° C | 36% | 1017.3 hPa | 0 mm | - | 41 W/m² | - |
| 1777847333 | 17.78° C | 40% | 1017.4 hPa | 0 mm | - | 42 W/m² | - |
| 1777847032 | 17.78° C | 42% | 1017.4 hPa | 0 mm | - | 44 W/m² | - |
| 1777846730 | 18.33° C | 43% | 1017.6 hPa | 0 mm | - | 45 W/m² | - |
| 1777846429 | 18.33° C | 37% | 1017.6 hPa | 0 mm | - | 46 W/m² | - |
| 1777846124 | 18.33° C | 40% | 1017.7 hPa | 0 mm | - | 49 W/m² | - |
| 1777845821 | 18.89° C | 42% | 1017.4 hPa | 0 mm | - | 53 W/m² | - |
| 1777845518 | 20° C | 46% | 1017.7 hPa | 0 mm | - | 140 W/m² | - |
* Rain latest hour (hover to see other rain measurements)
** Current wind speed in m/s (hover to see current wind gust speed)